sensor_id;sensor_type;location;lat;lon;timestamp;P1;durP1;ratioP1;P2;durP2;ratioP2
42754;SDS011;28407;51.830;5.684;2023-11-18T00:01:43;16.02;;;11.90;;
42754;SDS011;28407;51.830;5.684;2023-11-18T00:03:44;14.82;;;10.45;;
42754;SDS011;28407;51.830;5.684;2023-11-18T00:05:44;15.52;;;12.85;;
42754;SDS011;28407;51.830;5.684;2023-11-18T00:07:45;18.08;;;12.35;;
42754;SDS011;28407;51.830;5.684;2023-11-18T00:09:45;14.05;;;10.93;;
42754;SDS011;28407;51.830;5.684;2023-11-18T00:11:46;18.02;;;13.02;;
42754;SDS011;28407;51.830;5.684;2023-11-18T00:13:47;15.50;;;11.77;;
42754;SDS011;28407;51.830;5.684;2023-11-18T00:15:47;15.00;;;11.68;;
42754;SDS011;28407;51.830;5.684;2023-11-18T00:17:48;14.30;;;11.75;;
42754;SDS011;28407;51.830;5.684;2023-11-18T00:19:49;16.90;;;11.80;;
42754;SDS011;28407;51.830;5.684;2023-11-18T00:21:49;15.57;;;12.02;;
42754;SDS011;28407;51.830;5.684;2023-11-18T00:23:50;14.43;;;10.95;;
42754;SDS011;28407;51.830;5.684;2023-11-18T00:25:51;15.27;;;10.05;;
42754;SDS011;28407;51.830;5.684;2023-11-18T00:27:52;15.80;;;11.75;;
42754;SDS011;28407;51.830;5.684;2023-11-18T00:29:54;15.35;;;11.13;;
42754;SDS011;28407;51.830;5.684;2023-11-18T00:31:54;15.88;;;10.50;;
42754;SDS011;28407;51.830;5.684;2023-11-18T00:33:55;15.82;;;11.00;;
42754;SDS011;28407;51.830;5.684;2023-11-18T00:35:56;19.75;;;12.65;;
42754;SDS011;28407;51.830;5.684;2023-11-18T00:37:56;16.60;;;12.05;;
42754;SDS011;28407;51.830;5.684;2023-11-18T00:39:58;12.27;;;9.73;;
42754;SDS011;28407;51.830;5.684;2023-11-18T00:41:59;13.60;;;10.20;;
42754;SDS011;28407;51.830;5.684;2023-11-18T00:43:59;13.15;;;10.15;;
42754;SDS011;28407;51.830;5.684;2023-11-18T00:46:00;12.80;;;10.52;;
42754;SDS011;28407;51.830;5.684;2023-11-18T00:48:03;12.88;;;10.48;;
42754;SDS011;28407;51.830;5.684;2023-11-18T00:50:05;13.50;;;10.80;;
42754;SDS011;28407;51.830;5.684;2023-11-18T00:52:09;12.88;;;10.40;;
42754;SDS011;28407;51.830;5.684;2023-11-18T00:54:09;12.73;;;9.95;;
42754;SDS011;28407;51.830;5.684;2023-11-18T00:56:12;16.25;;;10.27;;
42754;SDS011;28407;51.830;5.684;2023-11-18T00:58:17;15.18;;;11.13;;
42754;SDS011;28407;51.830;5.684;2023-11-18T01:00:18;16.20;;;11.93;;
42754;SDS011;28407;51.830;5.684;2023-11-18T01:02:22;16.08;;;11.25;;
42754;SDS011;28407;51.830;5.684;2023-11-18T01:04:22;14.50;;;10.80;;
42754;SDS011;28407;51.830;5.684;2023-11-18T01:06:23;14.43;;;11.43;;
42754;SDS011;28407;51.830;5.684;2023-11-18T01:08:24;12.95;;;10.30;;
42754;SDS011;28407;51.830;5.684;2023-11-18T01:10:24;13.18;;;10.35;;
42754;SDS011;28407;51.830;5.684;2023-11-18T01:12:25;14.57;;;10.43;;
42754;SDS011;28407;51.830;5.684;2023-11-18T01:14:26;14.38;;;10.77;;
42754;SDS011;28407;51.830;5.684;2023-11-18T01:16:27;15.35;;;12.05;;
42754;SDS011;28407;51.830;5.684;2023-11-18T01:18:28;13.93;;;9.83;;
42754;SDS011;28407;51.830;5.684;2023-11-18T01:20:29;15.10;;;10.10;;
42754;SDS011;28407;51.830;5.684;2023-11-18T01:22:29;14.30;;;9.07;;
42754;SDS011;28407;51.830;5.684;2023-11-18T01:24:30;13.85;;;10.80;;
42754;SDS011;28407;51.830;5.684;2023-11-18T01:26:31;15.40;;;12.02;;
42754;SDS011;28407;51.830;5.684;2023-11-18T01:28:33;15.18;;;11.52;;
42754;SDS011;28407;51.830;5.684;2023-11-18T01:30:39;14.52;;;9.90;;
42754;SDS011;28407;51.830;5.684;2023-11-18T01:32:39;14.15;;;10.13;;
42754;SDS011;28407;51.830;5.684;2023-11-18T01:34:40;16.23;;;10.85;;
42754;SDS011;28407;51.830;5.684;2023-11-18T01:36:43;11.57;;;9.43;;
42754;SDS011;28407;51.830;5.684;2023-11-18T01:38:44;12.95;;;9.70;;
42754;SDS011;28407;51.830;5.684;2023-11-18T01:40:44;15.25;;;9.27;;
42754;SDS011;28407;51.830;5.684;2023-11-18T01:42:45;12.98;;;10.63;;
42754;SDS011;28407;51.830;5.684;2023-11-18T01:44:46;12.93;;;9.85;;
42754;SDS011;28407;51.830;5.684;2023-11-18T01:46:47;15.80;;;11.48;;
42754;SDS011;28407;51.830;5.684;2023-11-18T01:48:47;12.90;;;10.38;;
42754;SDS011;28407;51.830;5.684;2023-11-18T01:50:48;10.05;;;8.15;;
42754;SDS011;28407;51.830;5.684;2023-11-18T01:52:49;16.92;;;12.10;;
42754;SDS011;28407;51.830;5.684;2023-11-18T01:54:53;18.17;;;12.88;;
42754;SDS011;28407;51.830;5.684;2023-11-18T01:58:56;14.95;;;10.05;;
42754;SDS011;28407;51.830;5.684;2023-11-18T02:00:58;15.23;;;10.63;;
42754;SDS011;28407;51.830;5.684;2023-11-18T02:02:59;16.13;;;12.32;;
42754;SDS011;28407;51.830;5.684;2023-11-18T02:05:00;15.50;;;10.93;;
42754;SDS011;28407;51.830;5.684;2023-11-18T02:07:06;20.23;;;13.88;;
42754;SDS011;28407;51.830;5.684;2023-11-18T02:09:09;19.27;;;12.93;;
42754;SDS011;28407;51.830;5.684;2023-11-18T02:11:28;16.33;;;12.43;;
42754;SDS011;28407;51.830;5.684;2023-11-18T02:13:41;16.70;;;11.88;;
42754;SDS011;28407;51.830;5.684;2023-11-18T02:15:48;18.75;;;12.35;;
42754;SDS011;28407;51.830;5.684;2023-11-18T02:17:49;19.50;;;12.70;;
42754;SDS011;28407;51.830;5.684;2023-11-18T02:19:53;16.58;;;11.00;;
42754;SDS011;28407;51.830;5.684;2023-11-18T02:21:58;16.67;;;12.23;;
42754;SDS011;28407;51.830;5.684;2023-11-18T02:24:01;16.13;;;11.57;;
42754;SDS011;28407;51.830;5.684;2023-11-18T02:26:01;16.85;;;11.52;;
42754;SDS011;28407;51.830;5.684;2023-11-18T02:28:02;15.32;;;11.68;;
42754;SDS011;28407;51.830;5.684;2023-11-18T02:30:03;15.70;;;12.35;;
42754;SDS011;28407;51.830;5.684;2023-11-18T02:32:11;16.90;;;10.95;;
42754;SDS011;28407;51.830;5.684;2023-11-18T02:34:16;17.02;;;12.05;;
42754;SDS011;28407;51.830;5.684;2023-11-18T02:36:24;19.77;;;12.68;;
42754;SDS011;28407;51.830;5.684;2023-11-18T02:38:38;18.55;;;12.85;;
42754;SDS011;28407;51.830;5.684;2023-11-18T02:40:45;16.25;;;12.00;;
42754;SDS011;28407;51.830;5.684;2023-11-18T02:42:48;18.52;;;11.45;;
42754;SDS011;28407;51.830;5.684;2023-11-18T02:44:53;16.92;;;12.02;;
42754;SDS011;28407;51.830;5.684;2023-11-18T02:46:59;17.30;;;11.55;;
42754;SDS011;28407;51.830;5.684;2023-11-18T02:49:00;18.25;;;13.00;;
42754;SDS011;28407;51.830;5.684;2023-11-18T02:51:01;17.48;;;12.27;;
42754;SDS011;28407;51.830;5.684;2023-11-18T02:53:02;16.48;;;11.00;;
42754;SDS011;28407;51.830;5.684;2023-11-18T02:55:03;17.27;;;10.15;;
42754;SDS011;28407;51.830;5.684;2023-11-18T02:57:08;16.25;;;11.48;;
42754;SDS011;28407;51.830;5.684;2023-11-18T02:59:09;14.05;;;10.32;;
42754;SDS011;28407;51.830;5.684;2023-11-18T03:01:11;13.90;;;10.98;;
42754;SDS011;28407;51.830;5.684;2023-11-18T03:03:11;19.58;;;12.38;;
42754;SDS011;28407;51.830;5.684;2023-11-18T03:05:12;15.05;;;10.63;;
42754;SDS011;28407;51.830;5.684;2023-11-18T03:07:13;14.20;;;10.82;;
42754;SDS011;28407;51.830;5.684;2023-11-18T03:09:13;16.60;;;11.13;;
42754;SDS011;28407;51.830;5.684;2023-11-18T03:11:15;14.68;;;10.93;;
42754;SDS011;28407;51.830;5.684;2023-11-18T03:13:16;14.57;;;10.80;;
42754;SDS011;28407;51.830;5.684;2023-11-18T03:15:17;12.02;;;9.88;;
42754;SDS011;28407;51.830;5.684;2023-11-18T03:17:18;15.95;;;10.35;;
42754;SDS011;28407;51.830;5.684;2023-11-18T03:19:20;13.48;;;10.15;;
42754;SDS011;28407;51.830;5.684;2023-11-18T03:21:20;13.73;;;10.15;;
42754;SDS011;28407;51.830;5.684;2023-11-18T03:23:23;15.55;;;11.95;;
42754;SDS011;28407;51.830;5.684;2023-11-18T03:25:27;14.73;;;10.85;;
42754;SDS011;28407;51.830;5.684;2023-11-18T03:27:28;14.38;;;10.07;;
42754;SDS011;28407;51.830;5.684;2023-11-18T03:29:29;16.27;;;11.50;;
42754;SDS011;28407;51.830;5.684;2023-11-18T03:31:30;15.45;;;10.75;;
42754;SDS011;28407;51.830;5.684;2023-11-18T03:33:30;13.27;;;10.00;;
42754;SDS011;28407;51.830;5.684;2023-11-18T03:35:31;15.40;;;10.90;;
42754;SDS011;28407;51.830;5.684;2023-11-18T03:37:32;17.80;;;12.70;;
42754;SDS011;28407;51.830;5.684;2023-11-18T03:39:33;15.27;;;11.02;;
42754;SDS011;28407;51.830;5.684;2023-11-18T03:41:34;14.75;;;11.18;;
42754;SDS011;28407;51.830;5.684;2023-11-18T03:43:34;14.65;;;11.20;;
42754;SDS011;28407;51.830;5.684;2023-11-18T03:45:35;16.13;;;12.15;;
42754;SDS011;28407;51.830;5.684;2023-11-18T03:47:38;15.40;;;12.00;;
42754;SDS011;28407;51.830;5.684;2023-11-18T03:49:38;14.55;;;11.32;;
42754;SDS011;28407;51.830;5.684;2023-11-18T03:51:39;12.80;;;10.18;;
42754;SDS011;28407;51.830;5.684;2023-11-18T03:53:43;13.18;;;10.63;;
42754;SDS011;28407;51.830;5.684;2023-11-18T03:55:44;17.35;;;11.30;;
42754;SDS011;28407;51.830;5.684;2023-11-18T03:57:45;14.80;;;10.15;;
42754;SDS011;28407;51.830;5.684;2023-11-18T03:59:45;15.13;;;11.95;;
42754;SDS011;28407;51.830;5.684;2023-11-18T04:01:46;16.52;;;12.77;;
42754;SDS011;28407;51.830;5.684;2023-11-18T04:03:49;16.23;;;11.10;;
42754;SDS011;28407;51.830;5.684;2023-11-18T04:05:50;10.70;;;8.35;;
42754;SDS011;28407;51.830;5.684;2023-11-18T04:07:51;14.68;;;11.43;;
42754;SDS011;28407;51.830;5.684;2023-11-18T04:09:51;15.20;;;9.98;;
42754;SDS011;28407;51.830;5.684;2023-11-18T04:11:52;12.98;;;10.90;;
42754;SDS011;28407;51.830;5.684;2023-11-18T04:13:53;15.27;;;10.80;;
42754;SDS011;28407;51.830;5.684;2023-11-18T04:15:54;13.47;;;9.53;;
42754;SDS011;28407;51.830;5.684;2023-11-18T04:17:55;13.82;;;10.05;;
42754;SDS011;28407;51.830;5.684;2023-11-18T04:19:55;12.25;;;9.68;;
42754;SDS011;28407;51.830;5.684;2023-11-18T04:21:56;14.02;;;10.70;;
42754;SDS011;28407;51.830;5.684;2023-11-18T04:23:57;13.43;;;10.02;;
42754;SDS011;28407;51.830;5.684;2023-11-18T04:25:57;15.00;;;12.35;;
42754;SDS011;28407;51.830;5.684;2023-11-18T04:27:58;14.30;;;11.77;;
42754;SDS011;28407;51.830;5.684;2023-11-18T04:29:59;15.05;;;10.50;;
42754;SDS011;28407;51.830;5.684;2023-11-18T04:32:00;17.58;;;12.45;;
42754;SDS011;28407;51.830;5.684;2023-11-18T04:34:01;14.05;;;11.50;;
42754;SDS011;28407;51.830;5.684;2023-11-18T04:36:02;11.70;;;8.65;;
42754;SDS011;28407;51.830;5.684;2023-11-18T04:38:05;16.02;;;11.60;;
42754;SDS011;28407;51.830;5.684;2023-11-18T04:40:06;15.13;;;10.90;;
42754;SDS011;28407;51.830;5.684;2023-11-18T04:42:14;13.88;;;9.65;;
42754;SDS011;28407;51.830;5.684;2023-11-18T04:44:15;12.75;;;10.50;;
42754;SDS011;28407;51.830;5.684;2023-11-18T04:46:16;12.48;;;9.73;;
42754;SDS011;28407;51.830;5.684;2023-11-18T04:48:17;14.90;;;11.52;;
42754;SDS011;28407;51.830;5.684;2023-11-18T04:50:19;13.30;;;10.15;;
42754;SDS011;28407;51.830;5.684;2023-11-18T04:52:20;12.97;;;9.37;;
42754;SDS011;28407;51.830;5.684;2023-11-18T04:54:21;14.10;;;10.50;;
42754;SDS011;28407;51.830;5.684;2023-11-18T04:56:21;14.43;;;10.38;;
42754;SDS011;28407;51.830;5.684;2023-11-18T04:58:22;13.10;;;10.38;;
42754;SDS011;28407;51.830;5.684;2023-11-18T05:00:23;15.77;;;11.90;;
42754;SDS011;28407;51.830;5.684;2023-11-18T05:02:24;14.40;;;10.57;;
42754;SDS011;28407;51.830;5.684;2023-11-18T05:04:25;11.95;;;9.48;;
42754;SDS011;28407;51.830;5.684;2023-11-18T05:06:26;16.48;;;11.32;;
42754;SDS011;28407;51.830;5.684;2023-11-18T05:08:26;15.05;;;10.82;;
42754;SDS011;28407;51.830;5.684;2023-11-18T05:10:27;14.82;;;11.35;;
42754;SDS011;28407;51.830;5.684;2023-11-18T05:12:28;14.45;;;10.88;;
42754;SDS011;28407;51.830;5.684;2023-11-18T05:14:29;13.27;;;10.40;;
42754;SDS011;28407;51.830;5.684;2023-11-18T05:16:30;16.58;;;10.43;;
42754;SDS011;28407;51.830;5.684;2023-11-18T05:18:31;15.10;;;11.65;;
42754;SDS011;28407;51.830;5.684;2023-11-18T05:20:35;13.88;;;10.63;;
42754;SDS011;28407;51.830;5.684;2023-11-18T05:22:37;14.52;;;10.68;;
42754;SDS011;28407;51.830;5.684;2023-11-18T05:24:37;14.23;;;11.95;;
42754;SDS011;28407;51.830;5.684;2023-11-18T05:26:38;13.60;;;10.30;;
42754;SDS011;28407;51.830;5.684;2023-11-18T05:28:39;12.48;;;9.93;;
42754;SDS011;28407;51.830;5.684;2023-11-18T05:30:41;16.02;;;12.30;;
42754;SDS011;28407;51.830;5.684;2023-11-18T05:32:45;13.32;;;10.70;;
42754;SDS011;28407;51.830;5.684;2023-11-18T05:34:46;14.68;;;10.38;;
42754;SDS011;28407;51.830;5.684;2023-11-18T05:36:47;12.38;;;9.05;;
42754;SDS011;28407;51.830;5.684;2023-11-18T05:38:54;14.30;;;10.68;;
42754;SDS011;28407;51.830;5.684;2023-11-18T05:40:55;13.15;;;10.50;;
42754;SDS011;28407;51.830;5.684;2023-11-18T05:42:56;17.17;;;12.53;;
42754;SDS011;28407;51.830;5.684;2023-11-18T05:47:02;15.95;;;10.55;;
42754;SDS011;28407;51.830;5.684;2023-11-18T05:49:03;14.15;;;10.90;;
42754;SDS011;28407;51.830;5.684;2023-11-18T05:51:08;12.00;;;9.23;;
42754;SDS011;28407;51.830;5.684;2023-11-18T05:53:08;14.48;;;10.13;;
42754;SDS011;28407;51.830;5.684;2023-11-18T05:55:09;12.30;;;9.75;;
42754;SDS011;28407;51.830;5.684;2023-11-18T05:57:13;12.13;;;9.70;;
42754;SDS011;28407;51.830;5.684;2023-11-18T05:59:17;17.30;;;10.38;;
42754;SDS011;28407;51.830;5.684;2023-11-18T06:01:17;21.15;;;10.73;;
42754;SDS011;28407;51.830;5.684;2023-11-18T06:03:20;15.20;;;11.48;;
42754;SDS011;28407;51.830;5.684;2023-11-18T06:05:20;11.20;;;8.93;;
42754;SDS011;28407;51.830;5.684;2023-11-18T06:07:23;12.35;;;9.80;;
42754;SDS011;28407;51.830;5.684;2023-11-18T06:09:24;13.98;;;10.88;;
42754;SDS011;28407;51.830;5.684;2023-11-18T06:11:25;14.73;;;10.75;;
42754;SDS011;28407;51.830;5.684;2023-11-18T06:13:28;15.35;;;11.40;;
42754;SDS011;28407;51.830;5.684;2023-11-18T06:15:29;11.93;;;9.82;;
42754;SDS011;28407;51.830;5.684;2023-11-18T06:17:29;11.73;;;10.52;;
42754;SDS011;28407;51.830;5.684;2023-11-18T06:19:30;11.00;;;9.55;;
42754;SDS011;28407;51.830;5.684;2023-11-18T06:21:31;13.77;;;10.70;;
42754;SDS011;28407;51.830;5.684;2023-11-18T06:23:31;14.23;;;10.80;;
42754;SDS011;28407;51.830;5.684;2023-11-18T06:25:33;16.42;;;10.40;;
42754;SDS011;28407;51.830;5.684;2023-11-18T06:27:34;11.40;;;10.00;;
42754;SDS011;28407;51.830;5.684;2023-11-18T06:29:35;12.80;;;10.23;;
42754;SDS011;28407;51.830;5.684;2023-11-18T06:31:36;10.00;;;8.60;;
42754;SDS011;28407;51.830;5.684;2023-11-18T06:33:43;15.07;;;11.35;;
42754;SDS011;28407;51.830;5.684;2023-11-18T06:35:45;14.18;;;11.88;;
42754;SDS011;28407;51.830;5.684;2023-11-18T06:37:45;11.98;;;9.02;;
42754;SDS011;28407;51.830;5.684;2023-11-18T06:39:47;13.95;;;10.80;;
42754;SDS011;28407;51.830;5.684;2023-11-18T06:41:48;10.73;;;8.27;;
42754;SDS011;28407;51.830;5.684;2023-11-18T06:43:50;12.45;;;10.07;;
42754;SDS011;28407;51.830;5.684;2023-11-18T06:45:51;13.17;;;9.97;;
42754;SDS011;28407;51.830;5.684;2023-11-18T06:47:52;10.30;;;8.45;;
42754;SDS011;28407;51.830;5.684;2023-11-18T06:49:53;11.32;;;9.40;;
42754;SDS011;28407;51.830;5.684;2023-11-18T06:51:55;10.48;;;8.38;;
42754;SDS011;28407;51.830;5.684;2023-11-18T06:53:56;12.07;;;9.35;;
42754;SDS011;28407;51.830;5.684;2023-11-18T06:55:57;12.30;;;9.15;;
42754;SDS011;28407;51.830;5.684;2023-11-18T06:57:58;14.40;;;9.07;;
42754;SDS011;28407;51.830;5.684;2023-11-18T06:59:58;11.38;;;8.57;;
42754;SDS011;28407;51.830;5.684;2023-11-18T07:01:59;12.75;;;9.63;;
42754;SDS011;28407;51.830;5.684;2023-11-18T07:04:00;12.00;;;9.40;;
42754;SDS011;28407;51.830;5.684;2023-11-18T07:06:00;11.32;;;8.45;;
42754;SDS011;28407;51.830;5.684;2023-11-18T07:08:01;12.10;;;9.70;;
42754;SDS011;28407;51.830;5.684;2023-11-18T07:10:04;27.65;;;11.30;;
42754;SDS011;28407;51.830;5.684;2023-11-18T07:12:05;9.85;;;8.00;;
42754;SDS011;28407;51.830;5.684;2023-11-18T07:14:07;9.73;;;8.52;;
42754;SDS011;28407;51.830;5.684;2023-11-18T07:16:11;9.73;;;8.68;;
42754;SDS011;28407;51.830;5.684;2023-11-18T07:18:12;10.82;;;8.77;;
42754;SDS011;28407;51.830;5.684;2023-11-18T07:20:12;13.57;;;8.68;;
42754;SDS011;28407;51.830;5.684;2023-11-18T07:22:13;9.35;;;8.20;;
42754;SDS011;28407;51.830;5.684;2023-11-18T07:24:15;9.40;;;8.43;;
42754;SDS011;28407;51.830;5.684;2023-11-18T07:28:17;8.82;;;7.53;;
42754;SDS011;28407;51.830;5.684;2023-11-18T07:30:18;8.57;;;7.53;;
42754;SDS011;28407;51.830;5.684;2023-11-18T07:32:20;9.63;;;7.75;;
42754;SDS011;28407;51.830;5.684;2023-11-18T07:34:20;9.50;;;7.57;;
42754;SDS011;28407;51.830;5.684;2023-11-18T07:36:23;12.43;;;8.48;;
42754;SDS011;28407;51.830;5.684;2023-11-18T07:38:24;8.65;;;7.53;;
42754;SDS011;28407;51.830;5.684;2023-11-18T07:40:26;12.43;;;9.05;;
42754;SDS011;28407;51.830;5.684;2023-11-18T07:42:28;12.55;;;8.43;;
42754;SDS011;28407;51.830;5.684;2023-11-18T07:44:28;12.63;;;9.63;;
42754;SDS011;28407;51.830;5.684;2023-11-18T07:46:29;10.40;;;8.82;;
42754;SDS011;28407;51.830;5.684;2023-11-18T07:48:31;12.80;;;9.65;;
42754;SDS011;28407;51.830;5.684;2023-11-18T07:50:41;10.45;;;8.27;;
42754;SDS011;28407;51.830;5.684;2023-11-18T07:52:41;10.38;;;7.78;;
42754;SDS011;28407;51.830;5.684;2023-11-18T07:54:42;14.15;;;9.73;;
42754;SDS011;28407;51.830;5.684;2023-11-18T07:56:43;8.90;;;7.63;;
42754;SDS011;28407;51.830;5.684;2023-11-18T07:58:46;10.00;;;8.25;;
42754;SDS011;28407;51.830;5.684;2023-11-18T08:00:47;9.73;;;8.45;;
42754;SDS011;28407;51.830;5.684;2023-11-18T08:02:49;10.45;;;8.10;;
42754;SDS011;28407;51.830;5.684;2023-11-18T08:04:54;9.00;;;8.10;;
42754;SDS011;28407;51.830;5.684;2023-11-18T08:06:55;10.40;;;7.90;;
42754;SDS011;28407;51.830;5.684;2023-11-18T08:08:56;9.80;;;8.70;;
42754;SDS011;28407;51.830;5.684;2023-11-18T08:10:57;11.07;;;8.60;;
42754;SDS011;28407;51.830;5.684;2023-11-18T08:12:58;9.18;;;7.78;;
42754;SDS011;28407;51.830;5.684;2023-11-18T08:14:59;11.23;;;7.97;;
42754;SDS011;28407;51.830;5.684;2023-11-18T08:17:00;8.02;;;6.30;;
42754;SDS011;28407;51.830;5.684;2023-11-18T08:19:01;11.80;;;8.63;;
42754;SDS011;28407;51.830;5.684;2023-11-18T08:21:02;10.93;;;7.65;;
42754;SDS011;28407;51.830;5.684;2023-11-18T08:23:06;10.88;;;8.02;;
42754;SDS011;28407;51.830;5.684;2023-11-18T08:25:07;9.40;;;8.35;;
42754;SDS011;28407;51.830;5.684;2023-11-18T08:27:08;11.43;;;8.30;;
42754;SDS011;28407;51.830;5.684;2023-11-18T08:29:10;9.83;;;7.77;;
42754;SDS011;28407;51.830;5.684;2023-11-18T08:31:13;10.95;;;7.47;;
42754;SDS011;28407;51.830;5.684;2023-11-18T08:33:17;10.00;;;7.60;;
42754;SDS011;28407;51.830;5.684;2023-11-18T08:35:19;11.30;;;7.40;;
42754;SDS011;28407;51.830;5.684;2023-11-18T08:37:21;10.15;;;8.00;;
42754;SDS011;28407;51.830;5.684;2023-11-18T08:39:22;8.88;;;7.90;;
42754;SDS011;28407;51.830;5.684;2023-11-18T08:41:25;9.35;;;7.65;;
42754;SDS011;28407;51.830;5.684;2023-11-18T08:43:26;12.63;;;8.43;;
42754;SDS011;28407;51.830;5.684;2023-11-18T08:45:28;10.60;;;8.63;;
42754;SDS011;28407;51.830;5.684;2023-11-18T08:47:29;9.10;;;7.57;;
42754;SDS011;28407;51.830;5.684;2023-11-18T08:49:32;11.82;;;8.73;;
42754;SDS011;28407;51.830;5.684;2023-11-18T08:51:34;10.40;;;7.82;;
42754;SDS011;28407;51.830;5.684;2023-11-18T08:53:37;8.27;;;6.85;;
42754;SDS011;28407;51.830;5.684;2023-11-18T08:55:41;10.02;;;7.50;;
42754;SDS011;28407;51.830;5.684;2023-11-18T08:57:50;10.48;;;7.53;;
42754;SDS011;28407;51.830;5.684;2023-11-18T09:00:04;8.75;;;7.38;;
42754;SDS011;28407;51.830;5.684;2023-11-18T09:02:18;9.23;;;7.75;;
42754;SDS011;28407;51.830;5.684;2023-11-18T09:04:23;10.65;;;8.32;;
42754;SDS011;28407;51.830;5.684;2023-11-18T09:06:24;8.27;;;7.25;;
42754;SDS011;28407;51.830;5.684;2023-11-18T09:08:32;8.52;;;7.05;;
42754;SDS011;28407;51.830;5.684;2023-11-18T09:10:38;10.45;;;7.10;;
42754;SDS011;28407;51.830;5.684;2023-11-18T09:12:41;8.77;;;6.90;;
42754;SDS011;28407;51.830;5.684;2023-11-18T09:14:45;8.57;;;6.90;;
42754;SDS011;28407;51.830;5.684;2023-11-18T09:16:47;9.77;;;7.30;;
42754;SDS011;28407;51.830;5.684;2023-11-18T09:18:49;9.45;;;8.45;;
42754;SDS011;28407;51.830;5.684;2023-11-18T09:20:51;8.98;;;7.70;;
42754;SDS011;28407;51.830;5.684;2023-11-18T09:22:52;10.07;;;7.35;;
42754;SDS011;28407;51.830;5.684;2023-11-18T09:24:55;8.25;;;7.13;;
42754;SDS011;28407;51.830;5.684;2023-11-18T09:26:56;9.88;;;7.30;;
42754;SDS011;28407;51.830;5.684;2023-11-18T09:28:57;8.73;;;7.05;;
42754;SDS011;28407;51.830;5.684;2023-11-18T09:30:58;8.83;;;6.67;;
42754;SDS011;28407;51.830;5.684;2023-11-18T09:33:00;8.88;;;7.28;;
42754;SDS011;28407;51.830;5.684;2023-11-18T09:37:08;7.88;;;6.38;;
42754;SDS011;28407;51.830;5.684;2023-11-18T09:39:10;10.15;;;6.85;;
42754;SDS011;28407;51.830;5.684;2023-11-18T09:41:29;9.23;;;6.43;;
42754;SDS011;28407;51.830;5.684;2023-11-18T09:43:30;8.88;;;6.93;;
42754;SDS011;28407;51.830;5.684;2023-11-18T09:45:43;9.95;;;7.65;;
42754;SDS011;28407;51.830;5.684;2023-11-18T09:47:45;7.18;;;6.35;;
42754;SDS011;28407;51.830;5.684;2023-11-18T09:49:47;6.45;;;5.68;;
42754;SDS011;28407;51.830;5.684;2023-11-18T09:51:55;7.65;;;6.18;;
42754;SDS011;28407;51.830;5.684;2023-11-18T09:54:02;6.88;;;5.72;;
42754;SDS011;28407;51.830;5.684;2023-11-18T09:58:18;7.22;;;5.97;;
42754;SDS011;28407;51.830;5.684;2023-11-18T10:00:24;7.13;;;6.03;;
42754;SDS011;28407;51.830;5.684;2023-11-18T10:02:32;7.68;;;5.38;;
42754;SDS011;28407;51.830;5.684;2023-11-18T10:04:33;8.90;;;5.57;;
42754;SDS011;28407;51.830;5.684;2023-11-18T10:06:37;6.10;;;5.22;;
42754;SDS011;28407;51.830;5.684;2023-11-18T10:08:40;7.13;;;5.75;;
42754;SDS011;28407;51.830;5.684;2023-11-18T10:10:45;9.23;;;6.70;;
42754;SDS011;28407;51.830;5.684;2023-11-18T10:12:47;6.90;;;5.97;;
42754;SDS011;28407;51.830;5.684;2023-11-18T10:14:57;6.47;;;5.73;;
42754;SDS011;28407;51.830;5.684;2023-11-18T10:16:58;6.32;;;5.65;;
42754;SDS011;28407;51.830;5.684;2023-11-18T10:19:04;7.32;;;5.38;;
42754;SDS011;28407;51.830;5.684;2023-11-18T10:21:08;6.35;;;5.18;;
42754;SDS011;28407;51.830;5.684;2023-11-18T10:23:12;8.35;;;5.88;;
42754;SDS011;28407;51.830;5.684;2023-11-18T10:25:25;6.47;;;4.78;;
42754;SDS011;28407;51.830;5.684;2023-11-18T10:27:26;8.40;;;5.90;;
42754;SDS011;28407;51.830;5.684;2023-11-18T10:31:28;9.77;;;5.22;;
42754;SDS011;28407;51.830;5.684;2023-11-18T10:33:30;7.03;;;5.35;;
42754;SDS011;28407;51.830;5.684;2023-11-18T10:35:52;8.70;;;6.28;;
42754;SDS011;28407;51.830;5.684;2023-11-18T10:37:55;5.97;;;5.20;;
42754;SDS011;28407;51.830;5.684;2023-11-18T10:39:56;10.23;;;5.75;;
42754;SDS011;28407;51.830;5.684;2023-11-18T10:42:00;8.18;;;5.35;;
42754;SDS011;28407;51.830;5.684;2023-11-18T10:44:07;9.27;;;4.50;;
42754;SDS011;28407;51.830;5.684;2023-11-18T10:46:14;5.93;;;4.72;;
42754;SDS011;28407;51.830;5.684;2023-11-18T10:48:16;6.05;;;4.60;;
42754;SDS011;28407;51.830;5.684;2023-11-18T10:50:20;7.40;;;5.28;;
42754;SDS011;28407;51.830;5.684;2023-11-18T10:52:22;7.70;;;4.97;;
42754;SDS011;28407;51.830;5.684;2023-11-18T10:54:24;6.28;;;4.70;;
42754;SDS011;28407;51.830;5.684;2023-11-18T10:56:26;7.50;;;5.18;;
42754;SDS011;28407;51.830;5.684;2023-11-18T10:58:34;7.22;;;5.45;;
42754;SDS011;28407;51.830;5.684;2023-11-18T11:00:48;9.18;;;7.05;;
42754;SDS011;28407;51.830;5.684;2023-11-18T11:02:57;7.40;;;5.68;;
42754;SDS011;28407;51.830;5.684;2023-11-18T11:04:58;7.05;;;5.40;;
42754;SDS011;28407;51.830;5.684;2023-11-18T11:06:58;8.02;;;5.55;;
42754;SDS011;28407;51.830;5.684;2023-11-18T11:09:01;7.50;;;5.53;;
42754;SDS011;28407;51.830;5.684;2023-11-18T11:11:09;6.43;;;5.00;;
42754;SDS011;28407;51.830;5.684;2023-11-18T11:13:16;5.53;;;4.20;;
42754;SDS011;28407;51.830;5.684;2023-11-18T11:15:26;7.45;;;4.90;;
42754;SDS011;28407;51.830;5.684;2023-11-18T11:17:29;5.15;;;4.20;;
42754;SDS011;28407;51.830;5.684;2023-11-18T11:19:34;5.20;;;4.43;;
42754;SDS011;28407;51.830;5.684;2023-11-18T11:22:01;7.72;;;4.60;;
42754;SDS011;28407;51.830;5.684;2023-11-18T11:24:07;5.57;;;4.25;;
42754;SDS011;28407;51.830;5.684;2023-11-18T11:30:50;4.20;;;3.80;;
42754;SDS011;28407;51.830;5.684;2023-11-18T11:35:30;4.80;;;4.28;;
42754;SDS011;28407;51.830;5.684;2023-11-18T11:37:33;6.00;;;3.90;;
42754;SDS011;28407;51.830;5.684;2023-11-18T11:39:37;8.98;;;6.03;;
42754;SDS011;28407;51.830;5.684;2023-11-18T11:41:38;5.45;;;4.50;;
42754;SDS011;28407;51.830;5.684;2023-11-18T11:43:39;7.20;;;3.70;;
42754;SDS011;28407;51.830;5.684;2023-11-18T11:45:40;4.50;;;3.65;;
42754;SDS011;28407;51.830;5.684;2023-11-18T11:47:43;7.70;;;4.20;;
42754;SDS011;28407;51.830;5.684;2023-11-18T11:49:54;4.40;;;3.88;;
42754;SDS011;28407;51.830;5.684;2023-11-18T11:52:04;6.07;;;4.60;;
42754;SDS011;28407;51.830;5.684;2023-11-18T11:54:20;5.53;;;4.40;;
42754;SDS011;28407;51.830;5.684;2023-11-18T11:56:39;4.60;;;4.10;;
42754;SDS011;28407;51.830;5.684;2023-11-18T11:58:41;4.75;;;4.00;;
42754;SDS011;28407;51.830;5.684;2023-11-18T12:00:44;6.47;;;5.47;;
42754;SDS011;28407;51.830;5.684;2023-11-18T12:02:48;6.28;;;4.53;;
42754;SDS011;28407;51.830;5.684;2023-11-18T12:04:50;9.43;;;5.90;;
42754;SDS011;28407;51.830;5.684;2023-11-18T12:06:54;4.72;;;4.30;;
42754;SDS011;28407;51.830;5.684;2023-11-18T12:08:57;7.28;;;4.03;;
42754;SDS011;28407;51.830;5.684;2023-11-18T12:10:58;5.87;;;5.23;;
42754;SDS011;28407;51.830;5.684;2023-11-18T12:13:09;4.97;;;4.22;;
42754;SDS011;28407;51.830;5.684;2023-11-18T12:15:16;5.05;;;3.60;;
42754;SDS011;28407;51.830;5.684;2023-11-18T12:20:04;8.07;;;4.93;;
42754;SDS011;28407;51.830;5.684;2023-11-18T12:23:03;6.13;;;4.15;;
42754;SDS011;28407;51.830;5.684;2023-11-18T12:27:17;5.18;;;4.22;;
42754;SDS011;28407;51.830;5.684;2023-11-18T12:29:44;6.95;;;3.97;;
42754;SDS011;28407;51.830;5.684;2023-11-18T12:31:45;7.35;;;4.10;;
42754;SDS011;28407;51.830;5.684;2023-11-18T12:38:43;5.90;;;4.47;;